AUL276 ULLI-UUEE
Flight info
| Callsign | AUL276 |
|---|---|
| Flight time | 1h 1m |
| Altitude | 35000 |
| Route | LI784 DCT LI767 DCT SUGIN DCT OKBAV DCT NIRGI DCT DESUD DCT PESIL DCT IDLIT DCT NAMIN NAMIN3F |
| Aircraft | B737/M-SDE2E3FGHIRWXY/LB1 |
Departure
| Time | 2026-05-04 10:11 |
|---|---|
| Airport | Pulkovo Airport (ULLI) |
Arrival
| Time | 2026-05-04 11:12 |
|---|---|
| Airport | Sheremetyevo International Airport (UUEE) |
| Time | Latitude | Longitude | Altitude | Speed | Heading |
|---|---|---|---|---|---|
| 2026-05-04 09:42 | 59.79895 | 30.26344 | 87 ft | 0 kts | 285° |
| 2026-05-04 10:04 | 59.79896 | 30.26341 | 88 ft | 1 kts | 285° |
| 2026-05-04 10:04 | 59.79907 | 30.26261 | 88 ft | 12 kts | 285° |
| 2026-05-04 10:04 | 59.79914 | 30.26213 | 88 ft | 0 kts | 285° |
| 2026-05-04 10:05 | 59.79907 | 30.26201 | 88 ft | 4 kts | 185° |
| 2026-05-04 10:05 | 59.79850 | 30.26167 | 88 ft | 14 kts | 197° |
| 2026-05-04 10:06 | 59.79777 | 30.26215 | 88 ft | 13 kts | 108° |
| 2026-05-04 10:06 | 59.79760 | 30.26434 | 88 ft | 17 kts | 77° |
| 2026-05-04 10:06 | 59.79855 | 30.26554 | 88 ft | 18 kts | 16° |
| 2026-05-04 10:08 | 59.80527 | 30.25975 | 81 ft | 28 kts | 284° |
| 2026-05-04 10:08 | 59.80587 | 30.25601 | 82 ft | 28 kts | 284° |
| 2026-05-04 10:08 | 59.80641 | 30.25227 | 82 ft | 29 kts | 287° |
| 2026-05-04 10:08 | 59.80699 | 30.24844 | 81 ft | 27 kts | 285° |
| 2026-05-04 10:09 | 59.80804 | 30.24581 | 78 ft | 26 kts | 347° |
| 2026-05-04 10:09 | 59.80962 | 30.24575 | 75 ft | 15 kts | 42° |
| 2026-05-04 10:09 | 59.80965 | 30.24633 | 75 ft | 0 kts | 108° |
| 2026-05-04 10:10 | 59.80965 | 30.24635 | 75 ft | 1 kts | 108° |
| 2026-05-04 10:10 | 59.80897 | 30.25062 | 78 ft | 75 kts | 106° |
| 2026-05-04 10:10 | 59.80673 | 30.26566 | 75 ft | 149 kts | 105° |
| 2026-05-04 10:10 | 59.80375 | 30.28779 | 464 ft | 174 kts | 106° |
| 2026-05-04 10:11 | 59.80031 | 30.31231 | 962 ft | 201 kts | 109° |
| 2026-05-04 10:11 | 59.79582 | 30.34034 | 1502 ft | 229 kts | 110° |
| 2026-05-04 10:11 | 59.79083 | 30.37201 | 2269 ft | 251 kts | 109° |
| 2026-05-04 10:11 | 59.78580 | 30.40506 | 3276 ft | 261 kts | 109° |
| 2026-05-04 10:12 | 59.78050 | 30.44021 | 4186 ft | 275 kts | 109° |
| 2026-05-04 10:12 | 59.77506 | 30.47670 | 5208 ft | 283 kts | 109° |
| 2026-05-04 10:12 | 59.76945 | 30.51428 | 6213 ft | 292 kts | 109° |
| 2026-05-04 10:12 | 59.76368 | 30.55267 | 7277 ft | 298 kts | 109° |
| 2026-05-04 10:13 | 59.75785 | 30.59198 | 8326 ft | 306 kts | 109° |
| 2026-05-04 10:13 | 59.75201 | 30.63297 | 9390 ft | 314 kts | 109° |
| 2026-05-04 10:13 | 59.74611 | 30.67457 | 10362 ft | 326 kts | 110° |
| 2026-05-04 10:13 | 59.73975 | 30.71900 | 11204 ft | 344 kts | 109° |
| 2026-05-04 10:14 | 59.73308 | 30.76544 | 12119 ft | 358 kts | 109° |
| 2026-05-04 10:14 | 59.72632 | 30.81254 | 13255 ft | 365 kts | 109° |
| 2026-05-04 10:16 | 59.67509 | 31.16429 | 20740 ft | 407 kts | 108° |
| 2026-05-04 10:16 | 59.66716 | 31.21804 | 21700 ft | 413 kts | 109° |
| 2026-05-04 10:16 | 59.65903 | 31.27298 | 22621 ft | 419 kts | 108° |
| 2026-05-04 10:16 | 59.65089 | 31.32779 | 23490 ft | 425 kts | 108° |
| 2026-05-04 10:17 | 59.64247 | 31.38430 | 24404 ft | 431 kts | 108° |
| 2026-05-04 10:17 | 59.63393 | 31.44144 | 25256 ft | 437 kts | 109° |
| 2026-05-04 10:19 | 59.57323 | 31.84259 | 32112 ft | 424 kts | 110° |
| 2026-05-04 10:19 | 59.56480 | 31.89739 | 32998 ft | 420 kts | 110° |
| 2026-05-04 10:19 | 59.55640 | 31.95178 | 33720 ft | 419 kts | 109° |
| 2026-05-04 10:19 | 59.54787 | 32.00680 | 34390 ft | 420 kts | 109° |
| 2026-05-04 10:20 | 59.53817 | 32.06169 | 34730 ft | 425 kts | 116° |
| 2026-05-04 10:20 | 59.52421 | 32.11283 | 34743 ft | 428 kts | 130° |
| 2026-05-04 10:20 | 59.50408 | 32.15604 | 34748 ft | 417 kts | 144° |
| 2026-05-04 10:20 | 59.48228 | 32.19317 | 34740 ft | 412 kts | 146° |
| 2026-05-04 10:21 | 59.43922 | 32.26512 | 34738 ft | 398 kts | 146° |
| 2026-05-04 10:21 | 59.41836 | 32.30024 | 34741 ft | 383 kts | 146° |
| 2026-05-04 10:21 | 59.39840 | 32.33378 | 34743 ft | 370 kts | 146° |
| 2026-05-04 10:22 | 59.33957 | 32.43111 | 34757 ft | 389 kts | 146° |
| 2026-05-04 10:22 | 59.31840 | 32.46592 | 34759 ft | 404 kts | 146° |
| 2026-05-04 10:23 | 59.29683 | 32.50148 | 34758 ft | 413 kts | 145° |
| 2026-05-04 10:25 | 59.12268 | 32.78796 | 34762 ft | 410 kts | 145° |
| 2026-05-04 10:25 | 59.07925 | 32.85873 | 34764 ft | 410 kts | 145° |
| 2026-05-04 10:26 | 59.03549 | 32.92972 | 34762 ft | 410 kts | 146° |
| 2026-05-04 10:26 | 58.99170 | 33.00048 | 34766 ft | 410 kts | 146° |
| 2026-05-04 10:27 | 58.94768 | 33.07136 | 34768 ft | 411 kts | 146° |
| 2026-05-04 10:27 | 58.90368 | 33.14208 | 34771 ft | 411 kts | 144° |
| 2026-05-04 10:28 | 58.86245 | 33.21933 | 34773 ft | 416 kts | 136° |
| 2026-05-04 10:28 | 58.82384 | 33.30197 | 34776 ft | 416 kts | 136° |
| 2026-05-04 10:29 | 58.78516 | 33.38453 | 34784 ft | 415 kts | 136° |
| 2026-05-04 10:29 | 58.74658 | 33.46604 | 34788 ft | 413 kts | 136° |
| 2026-05-04 10:30 | 58.70763 | 33.54777 | 34789 ft | 415 kts | 136° |
| 2026-05-04 10:30 | 58.66862 | 33.62927 | 34788 ft | 416 kts | 136° |
| 2026-05-04 10:31 | 58.62967 | 33.71035 | 34786 ft | 414 kts | 137° |
| 2026-05-04 10:32 | 58.49276 | 33.99285 | 34795 ft | 415 kts | 136° |
| 2026-05-04 10:33 | 58.45333 | 34.07359 | 34800 ft | 416 kts | 136° |
| 2026-05-04 10:33 | 58.41399 | 34.15381 | 34799 ft | 415 kts | 136° |
| 2026-05-04 10:34 | 58.37470 | 34.23367 | 34804 ft | 415 kts | 136° |
| 2026-05-04 10:34 | 58.33519 | 34.31369 | 34798 ft | 415 kts | 136° |
| 2026-05-04 10:35 | 58.29568 | 34.39349 | 34805 ft | 415 kts | 136° |
| 2026-05-04 10:35 | 58.25634 | 34.47265 | 34805 ft | 415 kts | 136° |
| 2026-05-04 10:36 | 58.21674 | 34.55206 | 34803 ft | 415 kts | 136° |
| 2026-05-04 10:36 | 58.17536 | 34.62683 | 34805 ft | 411 kts | 143° |
| 2026-05-04 10:37 | 58.13115 | 34.69549 | 34808 ft | 412 kts | 144° |
| 2026-05-04 10:37 | 58.08689 | 34.76430 | 34812 ft | 412 kts | 144° |
| 2026-05-04 10:39 | 57.93271 | 35.00537 | 34802 ft | 411 kts | 144° |
| 2026-05-04 10:40 | 57.88855 | 35.07407 | 34807 ft | 411 kts | 143° |
| 2026-05-04 10:40 | 57.84449 | 35.14247 | 34811 ft | 412 kts | 143° |
| 2026-05-04 10:41 | 57.80030 | 35.21078 | 34802 ft | 412 kts | 143° |
| 2026-05-04 10:41 | 57.75612 | 35.27893 | 34820 ft | 412 kts | 143° |
| 2026-05-04 10:42 | 57.71222 | 35.34687 | 34820 ft | 404 kts | 142° |
| 2026-05-04 10:42 | 57.69078 | 35.38007 | 34826 ft | 392 kts | 143° |
| 2026-05-04 10:42 | 57.66971 | 35.41213 | 34827 ft | 394 kts | 143° |
| 2026-05-04 10:42 | 57.64823 | 35.44471 | 34829 ft | 407 kts | 143° |
| 2026-05-04 10:43 | 57.62606 | 35.47834 | 34825 ft | 416 kts | 143° |
| 2026-05-04 10:44 | 57.47185 | 35.71307 | 33374 ft | 404 kts | 143° |
| 2026-05-04 10:45 | 57.45020 | 35.74587 | 32826 ft | 403 kts | 143° |
| 2026-05-04 10:45 | 57.42849 | 35.77868 | 32267 ft | 401 kts | 143° |
| 2026-05-04 10:45 | 57.40693 | 35.81119 | 31713 ft | 400 kts | 143° |
| 2026-05-04 10:45 | 57.38546 | 35.84351 | 31134 ft | 399 kts | 143° |
| 2026-05-04 10:46 | 57.36383 | 35.87604 | 30549 ft | 399 kts | 143° |
| 2026-05-04 10:46 | 57.34262 | 35.90792 | 29956 ft | 399 kts | 143° |
| 2026-05-04 10:46 | 57.32106 | 35.94025 | 29346 ft | 398 kts | 143° |
| 2026-05-04 10:46 | 57.29975 | 35.97216 | 28785 ft | 397 kts | 143° |
| 2026-05-04 10:47 | 57.27824 | 36.00433 | 28365 ft | 399 kts | 143° |
| 2026-05-04 10:47 | 57.25637 | 36.03695 | 27893 ft | 403 kts | 143° |
| 2026-05-04 10:47 | 57.23465 | 36.06930 | 27414 ft | 398 kts | 143° |
| 2026-05-04 10:47 | 57.21353 | 36.10071 | 26947 ft | 392 kts | 143° |
| 2026-05-04 10:49 | 57.06977 | 36.31338 | 23738 ft | 366 kts | 143° |
| 2026-05-04 10:49 | 57.05004 | 36.34240 | 23301 ft | 367 kts | 144° |
| 2026-05-04 10:50 | 57.03016 | 36.37156 | 22854 ft | 371 kts | 144° |
| 2026-05-04 10:51 | 56.89332 | 36.56872 | 19790 ft | 354 kts | 144° |
| 2026-05-04 10:52 | 56.87435 | 36.59605 | 19364 ft | 349 kts | 144° |
| 2026-05-04 10:52 | 56.85536 | 36.62357 | 18934 ft | 345 kts | 143° |
| 2026-05-04 10:52 | 56.83683 | 36.65041 | 18512 ft | 340 kts | 144° |
| 2026-05-04 10:54 | 56.70986 | 36.83495 | 15866 ft | 325 kts | 139° |
| 2026-05-04 10:54 | 56.69346 | 36.86438 | 15868 ft | 334 kts | 136° |
| 2026-05-04 10:56 | 56.58136 | 37.06811 | 13493 ft | 322 kts | 137° |
| 2026-05-04 10:56 | 56.56555 | 37.09654 | 13090 ft | 318 kts | 137° |
| 2026-05-04 10:56 | 56.55010 | 37.12424 | 12696 ft | 314 kts | 137° |
| 2026-05-04 10:57 | 56.53464 | 37.15191 | 12298 ft | 311 kts | 137° |
| 2026-05-04 10:57 | 56.51834 | 37.17722 | 11940 ft | 310 kts | 148° |
| 2026-05-04 10:57 | 56.49908 | 37.19312 | 11878 ft | 304 kts | 168° |
| 2026-05-04 10:57 | 56.47809 | 37.20166 | 11882 ft | 308 kts | 172° |
| 2026-05-04 10:58 | 56.45753 | 37.20926 | 11711 ft | 302 kts | 171° |
| 2026-05-04 10:58 | 56.43713 | 37.21719 | 11358 ft | 299 kts | 171° |
| 2026-05-04 10:58 | 56.41662 | 37.22538 | 10970 ft | 303 kts | 171° |
| 2026-05-04 10:58 | 56.39628 | 37.23358 | 10581 ft | 302 kts | 170° |
| 2026-05-04 10:59 | 56.37606 | 37.24179 | 10194 ft | 298 kts | 170° |
| 2026-05-04 10:59 | 56.35603 | 37.24989 | 9839 ft | 293 kts | 171° |
| 2026-05-04 10:59 | 56.33655 | 37.25782 | 9664 ft | 282 kts | 170° |
| 2026-05-04 10:59 | 56.31736 | 37.26560 | 9286 ft | 283 kts | 171° |
| 2026-05-04 11:00 | 56.29837 | 37.27325 | 8923 ft | 283 kts | 170° |
| 2026-05-04 11:01 | 56.17452 | 37.34980 | 6927 ft | 262 kts | 123° |
| 2026-05-04 11:02 | 56.16951 | 37.38028 | 6768 ft | 252 kts | 91° |
| 2026-05-04 11:02 | 56.17108 | 37.41137 | 6506 ft | 254 kts | 76° |
| 2026-05-04 11:05 | 56.09958 | 37.76408 | 4015 ft | 195 kts | 152° |
| 2026-05-04 11:06 | 56.08724 | 37.77109 | 3966 ft | 185 kts | 183° |
| 2026-05-04 11:06 | 56.07415 | 37.76756 | 3979 ft | 197 kts | 200° |
| 2026-05-04 11:06 | 56.06094 | 37.75993 | 3972 ft | 200 kts | 201° |
| 2026-05-04 11:06 | 56.04780 | 37.75239 | 3951 ft | 201 kts | 201° |
| 2026-05-04 11:08 | 56.00412 | 37.63575 | 2775 ft | 165 kts | 256° |
| 2026-05-04 11:10 | 55.98754 | 37.52591 | 1553 ft | 126 kts | 256° |
| 2026-05-04 11:12 | 55.97345 | 37.42852 | 603 ft | 72 kts | 258° |
| 2026-05-04 11:12 | 55.97240 | 37.42192 | 609 ft | 48 kts | 246° |
| 2026-05-04 11:12 | 55.97154 | 37.41625 | 615 ft | 50 kts | 259° |
| 2026-05-04 11:12 | 55.97194 | 37.41325 | 616 ft | 20 kts | 343° |
| 2026-05-04 11:13 | 55.97271 | 37.41287 | 617 ft | 10 kts | 344° |
| 2026-05-04 11:13 | 55.97339 | 37.41255 | 619 ft | 9 kts | 347° |
| 2026-05-04 11:13 | 55.97401 | 37.41226 | 620 ft | 9 kts | 346° |
| 2026-05-04 11:13 | 55.97459 | 37.41198 | 621 ft | 8 kts | 346° |
| 2026-05-04 11:14 | 55.97525 | 37.41169 | 622 ft | 11 kts | 346° |
| 2026-05-04 11:14 | 55.97601 | 37.41134 | 622 ft | 11 kts | 356° |
| 2026-05-04 11:14 | 55.97658 | 37.41209 | 622 ft | 7 kts | 348° |